sensor_id;sensor_type;location;lat;lon;timestamp;P1;durP1;ratioP1;P2;durP2;ratioP2
21206;SDS011;10761;48.532;8.026;2022-08-19T00:01:38;19.08;;;17.30;;
21206;SDS011;10761;48.532;8.026;2022-08-19T00:04:06;18.77;;;16.92;;
21206;SDS011;10761;48.532;8.026;2022-08-19T00:06:37;18.65;;;16.83;;
21206;SDS011;10761;48.532;8.026;2022-08-19T00:09:05;18.35;;;16.48;;
21206;SDS011;10761;48.532;8.026;2022-08-19T00:11:32;19.15;;;17.35;;
21206;SDS011;10761;48.532;8.026;2022-08-19T00:13:59;17.60;;;15.90;;
21206;SDS011;10761;48.532;8.026;2022-08-19T00:16:25;19.75;;;16.63;;
21206;SDS011;10761;48.532;8.026;2022-08-19T00:18:50;19.23;;;17.17;;
21206;SDS011;10761;48.532;8.026;2022-08-19T00:21:16;18.15;;;16.38;;
21206;SDS011;10761;48.532;8.026;2022-08-19T00:23:42;19.52;;;17.73;;
21206;SDS011;10761;48.532;8.026;2022-08-19T00:26:08;19.50;;;17.70;;
21206;SDS011;10761;48.532;8.026;2022-08-19T00:28:34;20.02;;;18.10;;
21206;SDS011;10761;48.532;8.026;2022-08-19T00:31:00;19.80;;;17.92;;
21206;SDS011;10761;48.532;8.026;2022-08-19T00:33:28;18.83;;;17.05;;
21206;SDS011;10761;48.532;8.026;2022-08-19T00:35:57;18.58;;;16.77;;
21206;SDS011;10761;48.532;8.026;2022-08-19T00:38:23;18.83;;;16.92;;
21206;SDS011;10761;48.532;8.026;2022-08-19T00:40:49;19.45;;;17.63;;
21206;SDS011;10761;48.532;8.026;2022-08-19T00:43:18;20.70;;;18.80;;
21206;SDS011;10761;48.532;8.026;2022-08-19T00:45:46;19.38;;;17.67;;
21206;SDS011;10761;48.532;8.026;2022-08-19T00:48:12;19.63;;;17.65;;
21206;SDS011;10761;48.532;8.026;2022-08-19T00:50:40;19.67;;;17.77;;
21206;SDS011;10761;48.532;8.026;2022-08-19T00:53:08;21.20;;;19.08;;
21206;SDS011;10761;48.532;8.026;2022-08-19T00:55:35;21.73;;;18.92;;
21206;SDS011;10761;48.532;8.026;2022-08-19T00:58:08;21.08;;;18.98;;
21206;SDS011;10761;48.532;8.026;2022-08-19T01:00:37;22.08;;;19.98;;
21206;SDS011;10761;48.532;8.026;2022-08-19T01:03:08;26.55;;;23.75;;
21206;SDS011;10761;48.532;8.026;2022-08-19T01:05:35;26.42;;;23.63;;
21206;SDS011;10761;48.532;8.026;2022-08-19T01:08:03;24.02;;;21.75;;
21206;SDS011;10761;48.532;8.026;2022-08-19T01:10:31;25.15;;;21.73;;
21206;SDS011;10761;48.532;8.026;2022-08-19T01:13:00;24.25;;;21.92;;
21206;SDS011;10761;48.532;8.026;2022-08-19T01:18:21;23.70;;;21.35;;
21206;SDS011;10761;48.532;8.026;2022-08-19T01:20:48;21.73;;;19.75;;
21206;SDS011;10761;48.532;8.026;2022-08-19T01:23:14;24.17;;;21.77;;
21206;SDS011;10761;48.532;8.026;2022-08-19T01:28:17;28.08;;;25.35;;
21206;SDS011;10761;48.532;8.026;2022-08-19T01:30:46;26.98;;;24.35;;
21206;SDS011;10761;48.532;8.026;2022-08-19T01:33:12;27.48;;;24.70;;
21206;SDS011;10761;48.532;8.026;2022-08-19T01:35:38;26.50;;;23.98;;
21206;SDS011;10761;48.532;8.026;2022-08-19T01:38:06;26.60;;;23.88;;
21206;SDS011;10761;48.532;8.026;2022-08-19T01:40:35;26.10;;;23.63;;
21206;SDS011;10761;48.532;8.026;2022-08-19T01:43:03;26.80;;;24.15;;
21206;SDS011;10761;48.532;8.026;2022-08-19T01:45:31;30.33;;;25.20;;
21206;SDS011;10761;48.532;8.026;2022-08-19T01:47:58;29.15;;;26.15;;
21206;SDS011;10761;48.532;8.026;2022-08-19T01:50:25;22.60;;;20.35;;
21206;SDS011;10761;48.532;8.026;2022-08-19T01:52:51;26.75;;;23.95;;
21206;SDS011;10761;48.532;8.026;2022-08-19T01:55:19;28.10;;;25.25;;
21206;SDS011;10761;48.532;8.026;2022-08-19T01:57:47;28.35;;;24.40;;
21206;SDS011;10761;48.532;8.026;2022-08-19T02:00:17;28.02;;;24.33;;
21206;SDS011;10761;48.532;8.026;2022-08-19T02:02:44;28.10;;;25.10;;
21206;SDS011;10761;48.532;8.026;2022-08-19T02:05:10;26.85;;;24.25;;
21206;SDS011;10761;48.532;8.026;2022-08-19T02:07:38;29.00;;;26.00;;
21206;SDS011;10761;48.532;8.026;2022-08-19T02:10:06;28.48;;;25.45;;
21206;SDS011;10761;48.532;8.026;2022-08-19T02:12:35;28.15;;;25.15;;
21206;SDS011;10761;48.532;8.026;2022-08-19T02:15:02;27.08;;;24.38;;
21206;SDS011;10761;48.532;8.026;2022-08-19T02:17:28;26.63;;;23.88;;
21206;SDS011;10761;48.532;8.026;2022-08-19T02:19:56;27.10;;;24.33;;
21206;SDS011;10761;48.532;8.026;2022-08-19T02:22:22;27.30;;;24.58;;
21206;SDS011;10761;48.532;8.026;2022-08-19T02:24:48;28.65;;;25.67;;
21206;SDS011;10761;48.532;8.026;2022-08-19T02:27:14;27.52;;;24.80;;
21206;SDS011;10761;48.532;8.026;2022-08-19T02:29:41;25.92;;;23.23;;
21206;SDS011;10761;48.532;8.026;2022-08-19T02:32:06;26.27;;;23.48;;
21206;SDS011;10761;48.532;8.026;2022-08-19T02:34:32;25.60;;;22.95;;
21206;SDS011;10761;48.532;8.026;2022-08-19T02:36:58;26.35;;;23.58;;
21206;SDS011;10761;48.532;8.026;2022-08-19T02:39:24;28.08;;;25.08;;
21206;SDS011;10761;48.532;8.026;2022-08-19T02:41:49;29.95;;;26.48;;
21206;SDS011;10761;48.532;8.026;2022-08-19T02:44:17;27.30;;;24.58;;
21206;SDS011;10761;48.532;8.026;2022-08-19T02:46:44;24.65;;;22.25;;
21206;SDS011;10761;48.532;8.026;2022-08-19T02:49:11;25.25;;;22.65;;
21206;SDS011;10761;48.532;8.026;2022-08-19T02:51:38;28.25;;;22.50;;
21206;SDS011;10761;48.532;8.026;2022-08-19T02:54:06;26.90;;;24.00;;
21206;SDS011;10761;48.532;8.026;2022-08-19T02:56:35;27.42;;;24.55;;
21206;SDS011;10761;48.532;8.026;2022-08-19T02:59:02;26.70;;;23.90;;
21206;SDS011;10761;48.532;8.026;2022-08-19T03:01:34;28.13;;;23.92;;
21206;SDS011;10761;48.532;8.026;2022-08-19T03:04:00;27.38;;;24.58;;
21206;SDS011;10761;48.532;8.026;2022-08-19T03:06:28;28.85;;;25.85;;
21206;SDS011;10761;48.532;8.026;2022-08-19T03:08:55;26.45;;;23.73;;
21206;SDS011;10761;48.532;8.026;2022-08-19T03:11:23;27.73;;;24.77;;
21206;SDS011;10761;48.532;8.026;2022-08-19T03:13:51;25.35;;;22.63;;
21206;SDS011;10761;48.532;8.026;2022-08-19T03:16:18;24.63;;;22.17;;
21206;SDS011;10761;48.532;8.026;2022-08-19T03:18:46;26.98;;;23.42;;
21206;SDS011;10761;48.532;8.026;2022-08-19T03:21:21;26.48;;;23.67;;
21206;SDS011;10761;48.532;8.026;2022-08-19T03:23:49;25.08;;;21.85;;
21206;SDS011;10761;48.532;8.026;2022-08-19T03:26:15;24.27;;;21.90;;
21206;SDS011;10761;48.532;8.026;2022-08-19T03:28:42;25.55;;;22.77;;
21206;SDS011;10761;48.532;8.026;2022-08-19T03:31:12;25.05;;;22.65;;
21206;SDS011;10761;48.532;8.026;2022-08-19T03:33:39;24.92;;;22.52;;
21206;SDS011;10761;48.532;8.026;2022-08-19T03:36:06;25.92;;;23.38;;
21206;SDS011;10761;48.532;8.026;2022-08-19T03:38:35;27.00;;;24.15;;
21206;SDS011;10761;48.532;8.026;2022-08-19T03:41:03;24.25;;;21.65;;
21206;SDS011;10761;48.532;8.026;2022-08-19T03:43:34;25.10;;;22.08;;
21206;SDS011;10761;48.532;8.026;2022-08-19T03:46:05;25.40;;;22.80;;
21206;SDS011;10761;48.532;8.026;2022-08-19T03:48:35;25.63;;;22.65;;
21206;SDS011;10761;48.532;8.026;2022-08-19T03:51:03;26.13;;;23.52;;
21206;SDS011;10761;48.532;8.026;2022-08-19T03:53:30;26.08;;;23.38;;
21206;SDS011;10761;48.532;8.026;2022-08-19T03:55:57;25.73;;;22.65;;
21206;SDS011;10761;48.532;8.026;2022-08-19T03:58:25;24.20;;;21.70;;
21206;SDS011;10761;48.532;8.026;2022-08-19T04:00:53;25.67;;;23.05;;
21206;SDS011;10761;48.532;8.026;2022-08-19T04:03:20;24.13;;;21.52;;
21206;SDS011;10761;48.532;8.026;2022-08-19T04:05:46;24.02;;;21.48;;
21206;SDS011;10761;48.532;8.026;2022-08-19T04:08:12;27.80;;;24.83;;
21206;SDS011;10761;48.532;8.026;2022-08-19T04:10:43;27.35;;;24.40;;
21206;SDS011;10761;48.532;8.026;2022-08-19T04:13:09;27.52;;;24.52;;
21206;SDS011;10761;48.532;8.026;2022-08-19T04:15:38;27.80;;;24.10;;
21206;SDS011;10761;48.532;8.026;2022-08-19T04:18:09;27.05;;;22.98;;
21206;SDS011;10761;48.532;8.026;2022-08-19T04:20:45;24.08;;;21.63;;
21206;SDS011;10761;48.532;8.026;2022-08-19T04:23:13;30.13;;;23.35;;
21206;SDS011;10761;48.532;8.026;2022-08-19T04:25:40;24.92;;;22.50;;
21206;SDS011;10761;48.532;8.026;2022-08-19T04:28:08;24.67;;;22.23;;
21206;SDS011;10761;48.532;8.026;2022-08-19T04:30:43;23.90;;;21.48;;
21206;SDS011;10761;48.532;8.026;2022-08-19T04:33:14;25.45;;;22.20;;
21206;SDS011;10761;48.532;8.026;2022-08-19T04:35:46;23.77;;;21.48;;
21206;SDS011;10761;48.532;8.026;2022-08-19T04:38:14;25.05;;;21.77;;
21206;SDS011;10761;48.532;8.026;2022-08-19T04:40:42;24.13;;;21.70;;
21206;SDS011;10761;48.532;8.026;2022-08-19T04:43:27;23.08;;;20.65;;
21206;SDS011;10761;48.532;8.026;2022-08-19T04:45:54;22.50;;;20.30;;
21206;SDS011;10761;48.532;8.026;2022-08-19T04:48:20;22.20;;;20.08;;
21206;SDS011;10761;48.532;8.026;2022-08-19T04:50:50;21.80;;;19.85;;
21206;SDS011;10761;48.532;8.026;2022-08-19T04:53:21;22.33;;;20.23;;
21206;SDS011;10761;48.532;8.026;2022-08-19T04:55:47;22.05;;;19.88;;
21206;SDS011;10761;48.532;8.026;2022-08-19T04:58:12;21.88;;;19.77;;
21206;SDS011;10761;48.532;8.026;2022-08-19T05:00:38;22.33;;;20.02;;
21206;SDS011;10761;48.532;8.026;2022-08-19T05:03:04;24.00;;;21.50;;
21206;SDS011;10761;48.532;8.026;2022-08-19T05:05:30;22.65;;;20.45;;
21206;SDS011;10761;48.532;8.026;2022-08-19T05:07:56;25.15;;;21.23;;
21206;SDS011;10761;48.532;8.026;2022-08-19T05:10:22;23.13;;;20.70;;
21206;SDS011;10761;48.532;8.026;2022-08-19T05:12:47;25.67;;;21.75;;
21206;SDS011;10761;48.532;8.026;2022-08-19T05:15:13;23.33;;;21.02;;
21206;SDS011;10761;48.532;8.026;2022-08-19T05:17:39;23.02;;;20.73;;
21206;SDS011;10761;48.532;8.026;2022-08-19T05:20:24;24.60;;;21.85;;
21206;SDS011;10761;48.532;8.026;2022-08-19T05:23:10;24.05;;;21.48;;
21206;SDS011;10761;48.532;8.026;2022-08-19T05:25:39;24.33;;;21.92;;
21206;SDS011;10761;48.532;8.026;2022-08-19T05:28:05;23.55;;;20.77;;
21206;SDS011;10761;48.532;8.026;2022-08-19T05:30:30;24.80;;;21.88;;
21206;SDS011;10761;48.532;8.026;2022-08-19T05:32:57;24.35;;;21.75;;
21206;SDS011;10761;48.532;8.026;2022-08-19T05:35:23;23.50;;;21.00;;
21206;SDS011;10761;48.532;8.026;2022-08-19T05:37:48;24.33;;;21.83;;
21206;SDS011;10761;48.532;8.026;2022-08-19T05:40:14;24.88;;;22.15;;
21206;SDS011;10761;48.532;8.026;2022-08-19T05:42:40;27.88;;;22.73;;
21206;SDS011;10761;48.532;8.026;2022-08-19T05:45:06;25.05;;;22.52;;
21206;SDS011;10761;48.532;8.026;2022-08-19T05:47:32;23.33;;;20.92;;
21206;SDS011;10761;48.532;8.026;2022-08-19T05:49:58;24.98;;;22.17;;
21206;SDS011;10761;48.532;8.026;2022-08-19T05:52:23;24.45;;;21.95;;
21206;SDS011;10761;48.532;8.026;2022-08-19T05:54:49;28.35;;;23.17;;
21206;SDS011;10761;48.532;8.026;2022-08-19T05:57:15;24.55;;;21.85;;
21206;SDS011;10761;48.532;8.026;2022-08-19T05:59:43;23.70;;;21.20;;
21206;SDS011;10761;48.532;8.026;2022-08-19T06:02:11;24.70;;;21.52;;
21206;SDS011;10761;48.532;8.026;2022-08-19T06:04:36;23.30;;;20.85;;
21206;SDS011;10761;48.532;8.026;2022-08-19T06:07:02;24.98;;;22.20;;
21206;SDS011;10761;48.532;8.026;2022-08-19T06:09:28;25.58;;;22.85;;
21206;SDS011;10761;48.532;8.026;2022-08-19T06:11:56;23.95;;;21.55;;
21206;SDS011;10761;48.532;8.026;2022-08-19T06:14:25;27.48;;;22.25;;
21206;SDS011;10761;48.532;8.026;2022-08-19T06:16:52;25.23;;;22.63;;
21206;SDS011;10761;48.532;8.026;2022-08-19T06:19:20;25.42;;;21.58;;
21206;SDS011;10761;48.532;8.026;2022-08-19T06:21:48;24.17;;;21.67;;
21206;SDS011;10761;48.532;8.026;2022-08-19T06:24:16;23.58;;;21.10;;
21206;SDS011;10761;48.532;8.026;2022-08-19T06:26:44;24.50;;;20.85;;
21206;SDS011;10761;48.532;8.026;2022-08-19T06:29:12;26.10;;;21.83;;
21206;SDS011;10761;48.532;8.026;2022-08-19T06:31:43;25.15;;;22.05;;
21206;SDS011;10761;48.532;8.026;2022-08-19T06:34:14;24.00;;;21.30;;
21206;SDS011;10761;48.532;8.026;2022-08-19T06:36:41;27.27;;;22.48;;
21206;SDS011;10761;48.532;8.026;2022-08-19T06:39:13;28.02;;;22.98;;
21206;SDS011;10761;48.532;8.026;2022-08-19T06:41:41;26.92;;;23.05;;
21206;SDS011;10761;48.532;8.026;2022-08-19T06:44:09;29.27;;;21.80;;
21206;SDS011;10761;48.532;8.026;2022-08-19T06:46:35;29.88;;;21.92;;
21206;SDS011;10761;48.532;8.026;2022-08-19T06:49:02;27.98;;;21.85;;
21206;SDS011;10761;48.532;8.026;2022-08-19T06:51:28;24.92;;;22.00;;
21206;SDS011;10761;48.532;8.026;2022-08-19T06:53:56;30.70;;;21.83;;
21206;SDS011;10761;48.532;8.026;2022-08-19T06:56:23;31.02;;;21.73;;
21206;SDS011;10761;48.532;8.026;2022-08-19T06:58:55;27.92;;;22.75;;
21206;SDS011;10761;48.532;8.026;2022-08-19T07:01:21;31.13;;;21.25;;
21206;SDS011;10761;48.532;8.026;2022-08-19T07:03:47;28.58;;;22.17;;
21206;SDS011;10761;48.532;8.026;2022-08-19T07:06:14;26.25;;;23.52;;
21206;SDS011;10761;48.532;8.026;2022-08-19T07:08:42;25.35;;;22.13;;
21206;SDS011;10761;48.532;8.026;2022-08-19T07:11:10;28.27;;;24.17;;
21206;SDS011;10761;48.532;8.026;2022-08-19T07:13:40;26.50;;;23.60;;
21206;SDS011;10761;48.532;8.026;2022-08-19T07:16:09;25.95;;;23.10;;
21206;SDS011;10761;48.532;8.026;2022-08-19T07:18:38;30.45;;;23.65;;
21206;SDS011;10761;48.532;8.026;2022-08-19T07:23:34;29.33;;;25.17;;
21206;SDS011;10761;48.532;8.026;2022-08-19T07:26:13;25.13;;;22.50;;
21206;SDS011;10761;48.532;8.026;2022-08-19T07:28:39;25.65;;;22.60;;
21206;SDS011;10761;48.532;8.026;2022-08-19T07:31:16;26.42;;;23.52;;
21206;SDS011;10761;48.532;8.026;2022-08-19T07:33:43;27.40;;;23.35;;
21206;SDS011;10761;48.532;8.026;2022-08-19T07:36:11;27.52;;;24.50;;
21206;SDS011;10761;48.532;8.026;2022-08-19T07:38:38;26.20;;;23.40;;
21206;SDS011;10761;48.532;8.026;2022-08-19T07:41:09;25.85;;;23.27;;
21206;SDS011;10761;48.532;8.026;2022-08-19T07:43:37;25.00;;;22.30;;
21206;SDS011;10761;48.532;8.026;2022-08-19T07:46:03;26.08;;;22.20;;
21206;SDS011;10761;48.532;8.026;2022-08-19T07:48:29;25.88;;;22.67;;
21206;SDS011;10761;48.532;8.026;2022-08-19T07:50:55;26.95;;;23.17;;
21206;SDS011;10761;48.532;8.026;2022-08-19T07:53:23;26.83;;;23.60;;
21206;SDS011;10761;48.532;8.026;2022-08-19T07:55:49;27.52;;;22.60;;
21206;SDS011;10761;48.532;8.026;2022-08-19T07:58:17;28.25;;;24.13;;
21206;SDS011;10761;48.532;8.026;2022-08-19T08:00:45;25.90;;;23.15;;
21206;SDS011;10761;48.532;8.026;2022-08-19T08:03:13;26.35;;;23.65;;
21206;SDS011;10761;48.532;8.026;2022-08-19T08:05:40;26.33;;;23.65;;
21206;SDS011;10761;48.532;8.026;2022-08-19T08:08:24;26.42;;;23.75;;
21206;SDS011;10761;48.532;8.026;2022-08-19T08:10:56;26.45;;;23.85;;
21206;SDS011;10761;48.532;8.026;2022-08-19T08:13:22;26.60;;;23.70;;
21206;SDS011;10761;48.532;8.026;2022-08-19T08:15:48;26.73;;;22.88;;
21206;SDS011;10761;48.532;8.026;2022-08-19T08:18:14;33.25;;;23.77;;
21206;SDS011;10761;48.532;8.026;2022-08-19T08:20:40;30.10;;;23.70;;
21206;SDS011;10761;48.532;8.026;2022-08-19T08:23:05;26.08;;;23.27;;
21206;SDS011;10761;48.532;8.026;2022-08-19T08:25:50;28.70;;;25.48;;
21206;SDS011;10761;48.532;8.026;2022-08-19T08:28:20;27.83;;;24.92;;
21206;SDS011;10761;48.532;8.026;2022-08-19T08:30:46;25.67;;;23.17;;
21206;SDS011;10761;48.532;8.026;2022-08-19T08:33:14;26.80;;;24.00;;
21206;SDS011;10761;48.532;8.026;2022-08-19T08:35:42;26.35;;;23.65;;
21206;SDS011;10761;48.532;8.026;2022-08-19T08:38:10;27.17;;;22.55;;
21206;SDS011;10761;48.532;8.026;2022-08-19T08:46:04;25.50;;;22.90;;
21206;SDS011;10761;48.532;8.026;2022-08-19T08:48:50;25.95;;;22.50;;
21206;SDS011;10761;48.532;8.026;2022-08-19T08:51:24;26.20;;;23.33;;
21206;SDS011;10761;48.532;8.026;2022-08-19T08:53:53;26.95;;;24.15;;
21206;SDS011;10761;48.532;8.026;2022-08-19T08:56:20;25.45;;;21.80;;
21206;SDS011;10761;48.532;8.026;2022-08-19T08:58:51;28.45;;;24.50;;
21206;SDS011;10761;48.532;8.026;2022-08-19T09:01:24;25.20;;;22.52;;
21206;SDS011;10761;48.532;8.026;2022-08-19T09:03:52;24.75;;;22.05;;
21206;SDS011;10761;48.532;8.026;2022-08-19T09:06:21;27.48;;;22.13;;
21206;SDS011;10761;48.532;8.026;2022-08-19T09:09:09;23.98;;;21.67;;
21206;SDS011;10761;48.532;8.026;2022-08-19T09:17:16;25.48;;;22.35;;
21206;SDS011;10761;48.532;8.026;2022-08-19T09:19:56;25.27;;;21.35;;
21206;SDS011;10761;48.532;8.026;2022-08-19T09:22:23;25.65;;;22.08;;
21206;SDS011;10761;48.532;8.026;2022-08-19T09:24:49;23.70;;;21.35;;
21206;SDS011;10761;48.532;8.026;2022-08-19T09:27:19;22.92;;;20.67;;
21206;SDS011;10761;48.532;8.026;2022-08-19T09:29:46;22.45;;;20.05;;
21206;SDS011;10761;48.532;8.026;2022-08-19T09:32:13;24.77;;;21.23;;
21206;SDS011;10761;48.532;8.026;2022-08-19T09:34:39;22.13;;;19.70;;
21206;SDS011;10761;48.532;8.026;2022-08-19T09:37:05;21.05;;;18.55;;
21206;SDS011;10761;48.532;8.026;2022-08-19T09:39:31;21.20;;;19.02;;
21206;SDS011;10761;48.532;8.026;2022-08-19T09:41:56;21.38;;;19.20;;
21206;SDS011;10761;48.532;8.026;2022-08-19T09:44:23;20.13;;;18.20;;
21206;SDS011;10761;48.532;8.026;2022-08-19T09:46:48;20.30;;;17.98;;
21206;SDS011;10761;48.532;8.026;2022-08-19T09:49:16;20.63;;;18.42;;
21206;SDS011;10761;48.532;8.026;2022-08-19T09:51:43;22.38;;;19.52;;
21206;SDS011;10761;48.532;8.026;2022-08-19T09:54:08;21.50;;;19.15;;
21206;SDS011;10761;48.532;8.026;2022-08-19T09:56:34;21.05;;;18.88;;
21206;SDS011;10761;48.532;8.026;2022-08-19T09:59:01;20.95;;;18.52;;
21206;SDS011;10761;48.532;8.026;2022-08-19T10:01:28;19.00;;;17.00;;
21206;SDS011;10761;48.532;8.026;2022-08-19T10:03:56;19.00;;;16.80;;
21206;SDS011;10761;48.532;8.026;2022-08-19T10:06:24;21.25;;;17.20;;
21206;SDS011;10761;48.532;8.026;2022-08-19T10:08:54;20.63;;;17.30;;
21206;SDS011;10761;48.532;8.026;2022-08-19T10:11:20;18.35;;;15.07;;
21206;SDS011;10761;48.532;8.026;2022-08-19T10:13:47;16.35;;;14.73;;
21206;SDS011;10761;48.532;8.026;2022-08-19T10:16:14;16.73;;;14.30;;
21206;SDS011;10761;48.532;8.026;2022-08-19T10:18:42;18.73;;;13.98;;
21206;SDS011;10761;48.532;8.026;2022-08-19T10:21:12;18.10;;;14.40;;
21206;SDS011;10761;48.532;8.026;2022-08-19T10:23:40;15.15;;;13.23;;
21206;SDS011;10761;48.532;8.026;2022-08-19T10:26:12;16.33;;;14.73;;
21206;SDS011;10761;48.532;8.026;2022-08-19T10:28:39;16.88;;;14.07;;
21206;SDS011;10761;48.532;8.026;2022-08-19T10:31:09;16.67;;;14.85;;
21206;SDS011;10761;48.532;8.026;2022-08-19T10:33:37;21.48;;;14.25;;
21206;SDS011;10761;48.532;8.026;2022-08-19T10:36:05;14.88;;;13.27;;
21206;SDS011;10761;48.532;8.026;2022-08-19T10:38:36;14.25;;;12.95;;
21206;SDS011;10761;48.532;8.026;2022-08-19T10:41:12;15.23;;;13.55;;
21206;SDS011;10761;48.532;8.026;2022-08-19T10:43:40;15.27;;;13.68;;
21206;SDS011;10761;48.532;8.026;2022-08-19T10:46:10;15.88;;;12.93;;
21206;SDS011;10761;48.532;8.026;2022-08-19T10:48:37;13.73;;;12.43;;
21206;SDS011;10761;48.532;8.026;2022-08-19T10:51:03;18.50;;;13.20;;
21206;SDS011;10761;48.532;8.026;2022-08-19T10:53:47;15.88;;;12.52;;
21206;SDS011;10761;48.532;8.026;2022-08-19T10:56:14;17.40;;;14.13;;
21206;SDS011;10761;48.532;8.026;2022-08-19T10:58:58;16.33;;;12.88;;
21206;SDS011;10761;48.532;8.026;2022-08-19T11:01:25;14.52;;;12.88;;
21206;SDS011;10761;48.532;8.026;2022-08-19T11:03:52;14.02;;;12.60;;
21206;SDS011;10761;48.532;8.026;2022-08-19T11:06:18;13.02;;;11.82;;
21206;SDS011;10761;48.532;8.026;2022-08-19T11:08:45;15.63;;;12.77;;
21206;SDS011;10761;48.532;8.026;2022-08-19T11:11:11;12.25;;;10.93;;
21206;SDS011;10761;48.532;8.026;2022-08-19T11:13:38;13.30;;;10.82;;
21206;SDS011;10761;48.532;8.026;2022-08-19T11:16:10;12.90;;;11.27;;
21206;SDS011;10761;48.532;8.026;2022-08-19T11:18:43;14.00;;;9.85;;
21206;SDS011;10761;48.532;8.026;2022-08-19T11:21:12;12.85;;;11.65;;
21206;SDS011;10761;48.532;8.026;2022-08-19T11:23:46;11.88;;;9.70;;
21206;SDS011;10761;48.532;8.026;2022-08-19T11:26:14;13.10;;;11.32;;
21206;SDS011;10761;48.532;8.026;2022-08-19T11:28:41;12.70;;;11.50;;
21206;SDS011;10761;48.532;8.026;2022-08-19T11:31:15;15.50;;;12.15;;
21206;SDS011;10761;48.532;8.026;2022-08-19T11:33:43;15.20;;;12.35;;
21206;SDS011;10761;48.532;8.026;2022-08-19T11:36:10;14.60;;;12.85;;
21206;SDS011;10761;48.532;8.026;2022-08-19T11:38:36;14.27;;;12.77;;
21206;SDS011;10761;48.532;8.026;2022-08-19T11:41:03;15.55;;;11.90;;
21206;SDS011;10761;48.532;8.026;2022-08-19T11:43:31;13.25;;;11.65;;
21206;SDS011;10761;48.532;8.026;2022-08-19T11:45:57;12.32;;;11.02;;
21206;SDS011;10761;48.532;8.026;2022-08-19T11:48:23;12.82;;;11.55;;
21206;SDS011;10761;48.532;8.026;2022-08-19T11:50:50;13.05;;;11.63;;
21206;SDS011;10761;48.532;8.026;2022-08-19T11:53:20;11.40;;;10.25;;
21206;SDS011;10761;48.532;8.026;2022-08-19T11:55:46;16.83;;;11.07;;
21206;SDS011;10761;48.532;8.026;2022-08-19T11:58:13;13.43;;;12.05;;
21206;SDS011;10761;48.532;8.026;2022-08-19T12:00:41;22.33;;;13.20;;
21206;SDS011;10761;48.532;8.026;2022-08-19T12:03:07;14.27;;;12.10;;
21206;SDS011;10761;48.532;8.026;2022-08-19T12:05:33;12.38;;;11.07;;
21206;SDS011;10761;48.532;8.026;2022-08-19T12:08:02;11.88;;;10.55;;
21206;SDS011;10761;48.532;8.026;2022-08-19T12:10:27;13.80;;;9.60;;
21206;SDS011;10761;48.532;8.026;2022-08-19T12:12:53;13.10;;;10.52;;
21206;SDS011;10761;48.532;8.026;2022-08-19T12:15:18;12.70;;;10.63;;
21206;SDS011;10761;48.532;8.026;2022-08-19T12:17:44;12.98;;;11.55;;
21206;SDS011;10761;48.532;8.026;2022-08-19T12:20:11;15.00;;;11.85;;
21206;SDS011;10761;48.532;8.026;2022-08-19T12:22:38;13.95;;;11.57;;
21206;SDS011;10761;48.532;8.026;2022-08-19T12:25:06;14.02;;;11.10;;
21206;SDS011;10761;48.532;8.026;2022-08-19T12:27:32;10.98;;;9.40;;
21206;SDS011;10761;48.532;8.026;2022-08-19T12:29:58;12.55;;;9.98;;
21206;SDS011;10761;48.532;8.026;2022-08-19T12:32:25;12.07;;;10.15;;
21206;SDS011;10761;48.532;8.026;2022-08-19T12:34:51;13.43;;;9.95;;
21206;SDS011;10761;48.532;8.026;2022-08-19T12:37:17;12.80;;;10.55;;
21206;SDS011;10761;48.532;8.026;2022-08-19T12:39:42;11.50;;;10.07;;
21206;SDS011;10761;48.532;8.026;2022-08-19T12:42:12;12.18;;;9.80;;
21206;SDS011;10761;48.532;8.026;2022-08-19T12:44:39;11.23;;;10.07;;
21206;SDS011;10761;48.532;8.026;2022-08-19T12:47:06;10.32;;;7.90;;
21206;SDS011;10761;48.532;8.026;2022-08-19T12:49:33;10.70;;;9.43;;
21206;SDS011;10761;48.532;8.026;2022-08-19T12:51:59;9.50;;;8.70;;
21206;SDS011;10761;48.532;8.026;2022-08-19T12:54:26;10.63;;;9.40;;
21206;SDS011;10761;48.532;8.026;2022-08-19T12:56:52;11.68;;;10.50;;
21206;SDS011;10761;48.532;8.026;2022-08-19T12:59:17;12.43;;;9.38;;
21206;SDS011;10761;48.532;8.026;2022-08-19T13:01:44;10.18;;;8.43;;
21206;SDS011;10761;48.532;8.026;2022-08-19T13:04:09;9.75;;;8.77;;
21206;SDS011;10761;48.532;8.026;2022-08-19T13:06:35;8.10;;;7.30;;
21206;SDS011;10761;48.532;8.026;2022-08-19T13:09:04;8.15;;;5.72;;
21206;SDS011;10761;48.532;8.026;2022-08-19T13:11:30;7.82;;;5.15;;
21206;SDS011;10761;48.532;8.026;2022-08-19T13:13:58;6.35;;;5.07;;
21206;SDS011;10761;48.532;8.026;2022-08-19T13:16:24;9.25;;;8.32;;
21206;SDS011;10761;48.532;8.026;2022-08-19T13:18:52;12.63;;;8.88;;
21206;SDS011;10761;48.532;8.026;2022-08-19T13:21:19;7.53;;;5.93;;
21206;SDS011;10761;48.532;8.026;2022-08-19T13:23:45;12.27;;;10.75;;
21206;SDS011;10761;48.532;8.026;2022-08-19T13:26:11;14.40;;;11.88;;
21206;SDS011;10761;48.532;8.026;2022-08-19T13:28:38;14.15;;;11.25;;
21206;SDS011;10761;48.532;8.026;2022-08-19T13:31:24;12.85;;;11.20;;
21206;SDS011;10761;48.532;8.026;2022-08-19T13:34:10;12.73;;;11.40;;
21206;SDS011;10761;48.532;8.026;2022-08-19T13:36:37;14.45;;;11.52;;
21206;SDS011;10761;48.532;8.026;2022-08-19T13:39:03;12.57;;;10.90;;
21206;SDS011;10761;48.532;8.026;2022-08-19T13:41:30;15.32;;;12.40;;
21206;SDS011;10761;48.532;8.026;2022-08-19T13:43:56;11.57;;;10.43;;
21206;SDS011;10761;48.532;8.026;2022-08-19T13:46:22;11.98;;;10.88;;
21206;SDS011;10761;48.532;8.026;2022-08-19T13:48:47;12.60;;;11.30;;
21206;SDS011;10761;48.532;8.026;2022-08-19T13:51:14;12.48;;;11.20;;
21206;SDS011;10761;48.532;8.026;2022-08-19T13:53:41;12.48;;;10.73;;
21206;SDS011;10761;48.532;8.026;2022-08-19T13:56:09;14.02;;;11.30;;
21206;SDS011;10761;48.532;8.026;2022-08-19T13:58:36;11.27;;;10.18;;
21206;SDS011;10761;48.532;8.026;2022-08-19T14:01:03;11.15;;;10.07;;
21206;SDS011;10761;48.532;8.026;2022-08-19T14:03:30;12.93;;;10.95;;
21206;SDS011;10761;48.532;8.026;2022-08-19T14:05:56;12.55;;;10.65;;
21206;SDS011;10761;48.532;8.026;2022-08-19T14:08:22;11.35;;;10.25;;
21206;SDS011;10761;48.532;8.026;2022-08-19T14:10:48;10.93;;;9.82;;
21206;SDS011;10761;48.532;8.026;2022-08-19T14:13:15;10.63;;;9.40;;
21206;SDS011;10761;48.532;8.026;2022-08-19T14:15:43;11.88;;;9.80;;
21206;SDS011;10761;48.532;8.026;2022-08-19T14:18:09;11.05;;;9.95;;
21206;SDS011;10761;48.532;8.026;2022-08-19T14:20:35;10.93;;;9.82;;
21206;SDS011;10761;48.532;8.026;2022-08-19T14:23:02;14.90;;;9.60;;
21206;SDS011;10761;48.532;8.026;2022-08-19T14:25:30;11.50;;;10.30;;
21206;SDS011;10761;48.532;8.026;2022-08-19T14:27:57;11.00;;;9.98;;
21206;SDS011;10761;48.532;8.026;2022-08-19T14:30:30;10.70;;;9.60;;
21206;SDS011;10761;48.532;8.026;2022-08-19T14:32:58;12.57;;;10.02;;
21206;SDS011;10761;48.532;8.026;2022-08-19T14:35:25;13.25;;;9.80;;
21206;SDS011;10761;48.532;8.026;2022-08-19T14:37:52;12.82;;;10.38;;
21206;SDS011;10761;48.532;8.026;2022-08-19T14:40:20;12.52;;;10.25;;
21206;SDS011;10761;48.532;8.026;2022-08-19T14:42:51;10.43;;;9.52;;
21206;SDS011;10761;48.532;8.026;2022-08-19T14:45:29;10.98;;;9.90;;
21206;SDS011;10761;48.532;8.026;2022-08-19T14:48:01;11.68;;;9.63;;